KEWB/EWB METAR and TAF weather

Enter ICAO airport designator
Station Type Date Time Source
KEWB METAR 2020/07/02 16:53 UTC NOAA

KEWB 021653Z 18007KT 10SM FEW040 SCT065 28/19 A2978 RMK AO2 SLP082 T02830194


Station Type Date Time Source
KEWB Decoded METAR 2020/07/02 16:53 UTC NOAA

NEW BEDFORD REGIONAL AIRPORT, MA, United States (KEWB) 41-41N 070-58W 23M
Jul 02, 2020 - 12:53 PM EDT / 2020.07.02 1653 UTC
Wind: from the S (180 degrees) at 8 MPH (7 KT):0
Visibility: 10 mile(s):0
Sky conditions: partly cloudy
Temperature: 82.9 F (28.3 C)
Dew Point: 66.9 F (19.4 C)
Relative Humidity: 58%
Pressure (altimeter): 29.78 in. Hg (1008 hPa)
ob: KEWB 021653Z 18007KT 10SM FEW040 SCT065 28/19 A2978 RMK AO2 SLP082 T02830194
cycle: 17

Station Type Date Time Source
KEWB TAF UTC NOAA

Error!

Example: see airport list